Time;durP1;ratioP1;P1;durP2;ratioP2;P2;SDS_P1;SDS_P2;PMS_P1;PMS_P2;Temp;Humidity;BMP_temperature;BMP_pressure;BME280_temperature;BME280_humidity;BME280_pressure;Samples;Min_cycle;Max_cycle;Signal;HPM_P1;HPM_P2
2023/04/22 00:00:28;;;;;;;6.27;5.83;;;;;;;20.75;39.76;94726.28;6162528;28;108991;-72
2023/04/22 00:03:32;;;;;;;6.63;6.13;;;;;;;20.75;39.84;94726.28;6163813;28;108825;-72
2023/04/22 00:06:36;;;;;;;6.90;6.30;;;;;;;20.75;39.75;94731.59;6159517;28;108946;-72
2023/04/22 00:09:40;;;;;;;6.53;5.93;;;;;;;20.75;39.78;94731.59;6167979;28;110037;-72
2023/04/22 00:12:44;;;;;;;6.47;5.97;;;;;;;20.75;39.76;94728.94;6163363;28;109049;-72
2023/04/22 00:15:47;;;;;;;6.47;5.97;;;;;;;20.76;39.65;94727.06;6161856;28;108928;-70
2023/04/22 00:18:50;;;;;;;6.07;5.50;;;;;;;20.75;39.92;94722.84;6156910;28;110425;-72
2023/04/22 00:21:53;;;;;;;6.63;6.13;;;;;;;20.74;39.70;94718.59;6173584;28;108893;-72
2023/04/22 00:24:57;;;;;;;6.23;5.77;;;;;;;20.70;39.94;94715.78;6166953;28;108878;-72
2023/04/22 00:28:01;;;;;;;5.93;5.53;;;;;;;20.75;39.70;94715.63;6155506;28;109251;-72
2023/04/22 00:31:04;;;;;;;6.40;5.90;;;;;;;20.73;39.58;94707.19;6172990;28;109021;-73
2023/04/22 00:34:07;;;;;;;6.87;6.37;;;;;;;20.74;39.64;94713.28;6167420;28;108979;-73
2023/04/22 00:37:11;;;;;;;6.63;6.13;;;;;;;20.73;39.52;94717.81;6169587;28;108964;-73
2023/04/22 00:40:15;;;;;;;6.47;6.07;;;;;;;20.72;39.70;94718.91;6151644;28;109085;-72
2023/04/22 00:43:18;;;;;;;6.93;6.33;;;;;;;20.71;39.90;94720.00;6163126;28;108884;-73
2023/04/22 00:46:21;;;;;;;6.30;5.90;;;;;;;20.73;39.52;94723.13;6162216;28;108968;-72
2023/04/22 00:49:26;;;;;;;6.37;5.87;;;;;;;20.73;39.55;94723.13;6167340;28;109044;-72
2023/04/22 00:52:30;;;;;;;5.97;5.53;;;;;;;20.72;39.63;94734.88;6150639;28;111437;-72
2023/04/22 00:55:34;;;;;;;6.27;5.77;;;;;;;20.73;39.70;94727.66;6164958;28;108965;-71
2023/04/22 00:58:37;;;;;;;5.97;5.50;;;;;;;20.72;39.56;94737.53;6172800;28;109071;-73
2023/04/22 01:01:41;;;;;;;6.83;6.33;;;;;;;20.69;39.27;94729.38;6160463;28;109052;-74
2023/04/22 01:04:45;;;;;;;7.30;6.70;;;;;;;20.72;39.60;94726.09;6181249;28;108920;-73
2023/04/22 01:07:48;;;;;;;7.10;6.60;;;;;;;20.71;39.59;94733.28;6187230;28;108797;-73
2023/04/22 01:10:52;;;;;;;7.03;6.53;;;;;;;20.72;39.60;94742.06;6183433;28;108894;-73
2023/04/22 01:13:56;;;;;;;8.03;7.43;;;;;;;20.71;39.44;94740.50;6153870;28;108865;-72
2023/04/22 01:16:59;;;;;;;8.07;7.40;;;;;;;20.74;39.60;94739.88;6174785;28;108925;-72
2023/04/22 01:20:04;;;;;;;8.67;7.90;;;;;;;20.70;39.52;94731.72;6162078;28;109065;-72
2023/04/22 01:23:15;;;;;;;9.47;8.73;;;;;;;20.52;39.64;94704.25;6161031;28;108963;-72
2023/04/22 01:26:18;;;;;;;10.30;9.40;;;;;;;20.70;39.53;94731.72;6165649;28;108959;-72
2023/04/22 01:29:21;;;;;;;11.07;10.13;;;;;;;20.72;39.56;94734.09;6162585;28;108777;-72
2023/04/22 01:32:24;;;;;;;11.80;10.90;;;;;;;20.71;39.63;94737.84;6161020;28;108948;-72
2023/04/22 01:35:29;;;;;;;12.30;11.40;;;;;;;20.69;39.40;94740.78;6169994;28;108962;-67
2023/04/22 01:38:34;;;;;;;14.07;12.87;;;;;;;20.71;39.54;94735.16;6171670;28;109210;-72
2023/04/22 01:41:37;;;;;;;13.93;12.73;;;;;;;20.69;39.48;94740.00;6161974;28;108891;-72
2023/04/22 01:44:40;;;;;;;13.63;12.53;;;;;;;20.69;39.29;94743.44;6160785;28;108789;-73
2023/04/22 01:47:44;;;;;;;14.73;13.53;;;;;;;20.70;39.42;94741.56;6154896;28;108849;-73
2023/04/22 01:50:47;;;;;;;14.40;13.30;;;;;;;20.68;39.32;94731.25;6171648;28;109251;-73
2023/04/22 01:53:51;;;;;;;15.33;14.10;;;;;;;20.70;39.51;94733.59;6161157;28;108869;-73
2023/04/22 01:56:57;;;;;;;15.80;14.57;;;;;;;20.67;39.45;94737.66;6170415;28;109346;-73
2023/04/22 02:00:00;;;;;;;17.30;15.90;;;;;;;20.67;39.21;94726.22;6160891;28;109761;-73
2023/04/22 02:03:03;;;;;;;17.97;16.47;;;;;;;20.69;39.22;94729.38;6174804;28;109109;-72
2023/04/22 02:06:07;;;;;;;17.20;15.70;;;;;;;20.64;39.30;94730.25;6169411;28;109043;-72
2023/04/22 02:09:12;;;;;;;18.17;16.67;;;;;;;20.67;39.42;94735.00;6172622;28;108807;-72
2023/04/22 02:12:15;;;;;;;17.60;16.07;;;;;;;20.68;39.18;94735.78;6148167;28;109106;-72
2023/04/22 02:15:18;;;;;;;17.60;16.07;;;;;;;20.64;39.28;94730.25;6169862;28;108937;-72
2023/04/22 02:18:21;;;;;;;18.00;16.60;;;;;;;20.68;39.39;94741.09;6167802;28;109546;-72
2023/04/22 02:21:24;;;;;;;18.57;16.97;;;;;;;20.62;39.27;94730.56;6155348;28;108974;-71
2023/04/22 02:24:28;;;;;;;18.90;17.40;;;;;;;20.65;39.45;94737.16;6162210;28;108901;-72
2023/04/22 02:27:32;;;;;;;18.93;17.33;;;;;;;20.68;39.50;94725.16;6168060;28;109012;-72
2023/04/22 02:30:35;;;;;;;19.60;17.90;;;;;;;20.65;39.22;94731.84;6171392;28;108942;-72
2023/04/22 02:33:38;;;;;;;19.57;17.97;;;;;;;20.67;39.19;94731.53;6166434;28;109247;-72
2023/04/22 02:36:41;;;;;;;20.63;18.83;;;;;;;20.67;39.48;94735.00;6168410;28;109175;-72
2023/04/22 02:39:46;;;;;;;20.13;18.43;;;;;;;20.61;39.39;94730.88;6168728;28;109032;-71
2023/04/22 02:42:49;;;;;;;18.90;17.20;;;;;;;20.63;39.90;94734.00;6165726;28;108928;-72
2023/04/22 02:45:52;;;;;;;19.37;17.67;;;;;;;20.68;39.66;94741.88;6150482;28;108912;-72
2023/04/22 02:48:55;;;;;;;19.53;17.90;;;;;;;20.67;39.53;94745.63;6166224;28;108905;-71
2023/04/22 02:51:58;;;;;;;19.53;17.93;;;;;;;20.66;39.58;94744.03;6174912;28;109185;-72
2023/04/22 02:55:03;;;;;;;19.43;17.73;;;;;;;20.66;39.78;94749.34;6169083;28;109001;-70
2023/04/22 02:58:07;;;;;;;20.53;18.57;;;;;;;20.66;39.73;94746.69;6155904;28;109072;-72
2023/04/22 03:01:11;;;;;;;20.20;18.50;;;;;;;20.61;39.77;94741.50;6165106;28;108960;-70
2023/04/22 03:04:15;;;;;;;20.40;18.70;;;;;;;20.66;39.83;94743.25;6164598;28;108970;-72
2023/04/22 03:07:18;;;;;;;22.00;20.13;;;;;;;20.51;39.52;94725.81;6152906;28;108864;-72
2023/04/22 03:10:23;;;;;;;21.80;20.00;;;;;;;20.67;39.67;94753.59;6166995;28;109050;-72
2023/04/22 03:13:26;;;;;;;21.40;19.70;;;;;;;20.66;39.75;94754.66;6172682;28;109097;-71
2023/04/22 03:16:29;;;;;;;23.67;21.67;;;;;;;20.61;39.32;94746.81;6165408;28;108951;-71
2023/04/22 03:19:32;;;;;;;23.43;21.43;;;;;;;20.66;39.66;94753.88;6154001;28;108895;-72
2023/04/22 03:22:35;;;;;;;22.60;20.63;;;;;;;20.65;39.41;94747.00;6156275;28;109612;-72
2023/04/22 03:25:39;;;;;;;23.30;21.40;;;;;;;20.64;39.70;94754.19;6168130;28;108905;-72
2023/04/22 03:28:43;;;;;;;23.20;21.30;;;;;;;20.65;39.64;94757.63;6174959;28;109055;-72
2023/04/22 03:31:46;;;;;;;23.87;21.83;;;;;;;20.60;39.43;94755.88;6149115;28;108926;-72
2023/04/22 03:34:49;;;;;;;25.03;22.83;;;;;;;20.63;39.60;94766.69;6166345;28;108841;-72
2023/04/22 03:37:52;;;;;;;25.27;23.00;;;;;;;20.65;39.68;94774.38;6185435;28;108915;-72
2023/04/22 03:40:57;;;;;;;26.77;24.63;;;;;;;20.63;39.52;94773.88;6178529;28;109823;-72
2023/04/22 03:44:00;;;;;;;26.70;24.50;;;;;;;20.63;39.62;94776.56;6158754;28;109155;-72
2023/04/22 03:47:04;;;;;;;25.70;23.70;;;;;;;20.63;39.64;94769.34;6171646;28;108869;-72
2023/04/22 03:50:08;;;;;;;26.37;24.10;;;;;;;20.63;39.48;94776.56;6163460;28;108948;-72
2023/04/22 03:53:11;;;;;;;26.50;24.23;;;;;;;20.58;39.74;94772.16;6161643;28;108828;-72
2023/04/22 03:56:15;;;;;;;26.80;24.50;;;;;;;20.64;39.61;94780.78;6182823;28;108863;-72
2023/04/22 03:59:18;;;;;;;27.60;25.30;;;;;;;20.61;39.26;94774.19;6170706;28;108949;-71
2023/04/22 04:02:21;;;;;;;27.47;24.97;;;;;;;20.63;39.47;94776.56;6169136;28;108869;-72
2023/04/22 04:05:25;;;;;;;29.13;26.63;;;;;;;20.58;39.47;94774.81;6164482;28;109182;-72
2023/04/22 04:08:28;;;;;;;27.90;25.60;;;;;;;20.57;39.41;94775.91;6172410;28;109046;-73
2023/04/22 04:11:32;;;;;;;28.77;26.17;;;;;;;20.63;39.43;94781.88;6166173;28;108926;-72
2023/04/22 04:14:36;;;;;;;29.67;27.13;;;;;;;20.63;39.45;94787.19;6161706;28;109035;-71
2023/04/22 04:17:39;;;;;;;28.80;26.50;;;;;;;20.65;39.41;94784.22;6171463;28;108879;-71
2023/04/22 04:20:42;;;;;;;27.90;25.60;;;;;;;20.60;39.44;94785.13;6162893;28;108945;-71
2023/04/22 04:23:45;;;;;;;28.17;25.77;;;;;;;20.62;39.13;94790.94;6164589;28;108834;-70
2023/04/22 04:26:50;;;;;;;28.83;26.53;;;;;;;20.61;39.39;94789.38;6152451;28;108956;-71
2023/04/22 04:29:54;;;;;;;28.47;26.10;;;;;;;20.61;39.34;94794.69;6163118;28;108936;-72
2023/04/22 04:32:57;;;;;;;29.53;27.10;;;;;;;20.58;39.32;94790.75;6168712;28;108909;-71
2023/04/22 04:36:00;;;;;;;29.00;26.60;;;;;;;20.61;39.18;94805.31;6163433;28;108829;-72
2023/04/22 04:39:04;;;;;;;28.40;26.10;;;;;;;20.56;39.21;94798.25;6152005;28;109682;-72
2023/04/22 04:42:08;;;;;;;28.03;25.73;;;;;;;20.60;39.69;94809.06;6170016;28;109018;-72
2023/04/22 04:45:11;;;;;;;29.23;26.90;;;;;;;20.65;39.28;94814.25;6176178;28;108897;-71
2023/04/22 04:48:15;;;;;;;28.60;26.17;;;;;;;20.62;39.49;94817.50;6170025;28;108989;-71
2023/04/22 04:51:18;;;;;;;29.93;27.37;;;;;;;20.44;39.55;94795.34;6151878;28;109044;-70
2023/04/22 04:54:22;;;;;;;29.67;27.07;;;;;;;20.63;39.58;94824.41;6167275;28;109066;-70
2023/04/22 04:57:27;;;;;;;28.73;26.10;;;;;;;20.63;40.07;94832.38;6162802;28;109201;-70
2023/04/22 05:00:30;;;;;;;29.63;27.23;;;;;;;20.68;39.81;94837.59;6160448;28;109517;-70
2023/04/22 05:03:33;;;;;;;28.87;26.37;;;;;;;20.69;40.13;94844.50;6155981;28;108969;-70
2023/04/22 05:06:36;;;;;;;26.90;24.70;;;;;;;20.67;40.31;94836.03;6166881;28;109172;-69
2023/04/22 05:09:39;;;;;;;28.80;26.40;;;;;;;20.70;40.60;94839.97;6173602;28;108990;-71
2023/04/22 05:12:46;;;;;;;27.37;24.90;;;;;;;20.71;40.55;94842.31;6164882;28;109306;-70
2023/04/22 05:15:50;;;;;;;26.90;24.60;;;;;;;20.69;40.84;94839.16;6178187;28;108906;-71
2023/04/22 05:18:53;;;;;;;25.60;23.30;;;;;;;20.53;40.99;94820.13;6174654;28;109003;-70
2023/04/22 05:21:56;;;;;;;23.33;21.33;;;;;;;20.74;40.80;94849.69;6161656;28;109004;-70
2023/04/22 05:24:59;;;;;;;24.70;22.70;;;;;;;20.75;40.56;94845.94;6150123;28;109112;-70
2023/04/22 05:28:03;;;;;;;22.83;20.73;;;;;;;20.75;41.10;94848.59;6161727;28;108849;-70
2023/04/22 05:31:07;;;;;;;22.10;20.20;;;;;;;20.71;40.95;94844.97;6155555;28;109051;-70
2023/04/22 05:34:10;;;;;;;21.73;19.93;;;;;;;20.73;40.70;94845.44;6170137;28;108967;-70
2023/04/22 05:37:13;;;;;;;20.20;18.60;;;;;;;20.74;40.88;94846.22;6162417;28;108839;-71
2023/04/22 05:40:16;;;;;;;19.97;18.13;;;;;;;20.82;40.79;94848.94;6169468;28;108890;-71
2023/04/22 05:43:21;;;;;;;20.40;18.60;;;;;;;20.74;40.61;94833.72;6161481;28;108895;-70
2023/04/22 05:46:24;;;;;;;20.20;18.50;;;;;;;20.86;40.49;94847.28;6151427;28;109790;-70
2023/04/22 05:49:27;;;;;;;17.10;15.60;;;;;;;20.88;40.86;94847.75;6163022;28;109121;-68
2023/04/22 05:52:30;;;;;;;16.63;15.33;;;;;;;20.93;40.78;94839.66;6170117;28;108895;-72
2023/04/22 05:55:34;;;;;;;17.40;15.97;;;;;;;20.99;40.60;94844.84;6163267;28;109091;-71
2023/04/22 05:58:38;;;;;;;16.97;15.57;;;;;;;21.01;40.46;94835.50;6150502;28;109021;-70
2023/04/22 06:01:42;;;;;;;15.17;13.70;;;;;;;21.01;40.23;94840.81;6171524;28;108895;-64
2023/04/22 06:04:45;;;;;;;14.37;11.60;;;;;;;20.89;38.97;94836.03;6168566;28;109381;-66
2023/04/22 06:07:48;;;;;;;11.40;10.23;;;;;;;20.79;38.51;94840.78;6160724;28;109018;-64
2023/04/22 06:10:51;;;;;;;16.93;10.10;;;;;;;20.85;38.36;94839.59;6149579;28;109103;-66
2023/04/22 06:13:56;;;;;;;12.90;9.63;;;;;;;20.88;38.00;94841.66;6166345;28;109109;-65
2023/04/22 06:16:59;;;;;;;10.50;8.77;;;;;;;20.89;37.87;94833.38;6169595;28;108903;-65
2023/04/22 06:20:02;;;;;;;8.93;7.50;;;;;;;20.90;37.81;94837.59;6154670;28;109032;-63
2023/04/22 06:23:05;;;;;;;17.97;8.60;;;;;;;20.92;37.85;94845.28;6157539;28;108997;-64
2023/04/22 06:26:08;;;;;;;9.03;7.57;;;;;;;20.90;37.84;94844.78;6174774;28;108941;-65
2023/04/22 06:29:13;;;;;;;9.90;7.03;;;;;;;20.88;37.61;94846.97;6159946;28;108982;-66
2023/04/22 06:32:16;;;;;;;8.30;7.50;;;;;;;20.89;37.78;94857.31;6149711;28;108957;-66
2023/04/22 06:35:20;;;;;;;7.63;6.90;;;;;;;20.91;37.65;94855.13;6164660;28;108978;-65
2023/04/22 06:38:23;;;;;;;8.47;6.70;;;;;;;21.01;37.71;94853.31;6160762;28;108885;-64
2023/04/22 06:41:26;;;;;;;7.90;7.00;;;;;;;21.04;37.44;94852.72;6162184;28;109020;-64
2023/04/22 06:44:31;;;;;;;11.40;6.43;;;;;;;21.03;37.60;94848.47;6149815;28;109023;-64
2023/04/22 06:47:34;;;;;;;7.00;5.93;;;;;;;21.12;37.39;94852.78;6179267;28;109043;-64
2023/04/22 06:50:37;;;;;;;7.37;6.53;;;;;;;21.16;37.66;94848.41;6184026;28;108851;-63
2023/04/22 06:53:40;;;;;;;7.23;5.60;;;;;;;21.18;37.42;94848.94;6160831;28;108834;-62
2023/04/22 06:56:43;;;;;;;7.73;5.80;;;;;;;21.24;37.35;94854.91;6159149;28;108909;-64
2023/04/22 06:59:47;;;;;;;5.37;4.97;;;;;;;21.25;37.20;94848.47;6163654;28;108900;-64
2023/04/22 07:02:51;;;;;;;6.97;6.47;;;;;;;21.20;36.92;94838.75;6163515;28;109024;-64
2023/04/22 07:05:54;;;;;;;6.00;5.60;;;;;;;21.30;37.32;94848.34;6154359;28;109702;-64
2023/04/22 07:08:57;;;;;;;6.60;6.00;;;;;;;21.39;37.08;94851.84;6164009;28;108904;-63
2023/04/22 07:12:01;;;;;;;6.13;5.53;;;;;;;21.42;37.44;94845.91;6164153;28;109121;-64
2023/04/22 07:15:07;;;;;;;6.80;5.27;;;;;;;21.48;37.42;94850.00;6164097;28;108931;-63
2023/04/22 07:18:10;;;;;;;6.03;5.40;;;;;;;21.52;37.21;94847.53;6153600;28;109135;-65
2023/04/22 07:21:13;;;;;;;6.53;5.20;;;;;;;21.55;37.58;94848.78;6163602;28;109021;-65
2023/04/22 07:24:16;;;;;;;5.40;4.90;;;;;;;21.59;37.09;94847.09;6164039;28;108963;-65
2023/04/22 07:27:19;;;;;;;5.27;4.87;;;;;;;21.64;37.03;94852.25;6163619;28;109103;-63
2023/04/22 07:30:24;;;;;;;5.63;5.13;;;;;;;21.58;37.62;94846.31;6152232;28;109171;-64
2023/04/22 07:33:27;;;;;;;5.77;4.60;;;;;;;21.67;37.75;94857.75;6163672;28;109038;-68
2023/04/22 07:36:31;;;;;;;5.77;5.23;;;;;;;21.71;37.30;94860.63;6163320;28;108881;-62
2023/04/22 07:39:34;;;;;;;7.10;5.20;;;;;;;21.75;37.69;94858.91;6159040;28;109003;-63
2023/04/22 07:42:38;;;;;;;7.63;5.87;;;;;;;21.77;37.70;94856.72;6158118;28;109511;-63
2023/04/22 07:45:43;;;;;;;5.90;5.20;;;;;;;21.79;37.62;94849.97;6163693;28;108893;-64
2023/04/22 07:48:46;;;;;;;8.30;5.97;;;;;;;21.78;37.49;94848.41;6156480;28;108895;-65
2023/04/22 07:51:49;;;;;;;12.50;6.33;;;;;;;21.83;37.22;94852.84;6153166;28;109004;-65
2023/04/22 07:54:52;;;;;;;7.10;5.40;;;;;;;21.86;37.41;94849.59;6163393;28;109060;-64
2023/04/22 07:57:55;;;;;;;6.53;5.40;;;;;;;21.90;37.15;94847.06;6163100;28;108865;-65
2023/04/22 08:00:59;;;;;;;5.80;5.23;;;;;;;21.92;37.52;94843.00;6162378;28;109049;-65
2023/04/22 08:04:02;;;;;;;5.83;5.17;;;;;;;21.96;37.01;94846.63;6152542;28;110172;-64
2023/04/22 08:07:06;;;;;;;5.70;5.00;;;;;;;21.98;37.34;94843.63;6162676;28;110194;-63
2023/04/22 08:10:29;;;;;;;6.63;5.27;;;;;;;22.01;36.84;94841.16;6163318;28;109310;-64
2023/04/22 08:13:32;;;;;;;6.27;4.87;;;;;;;22.05;37.18;94836.00;6156090;28;108914;-63
2023/04/22 08:16:37;;;;;;;6.10;5.40;;;;;;;22.05;37.20;94836.78;6157569;28;108903;-63
2023/04/22 08:19:40;;;;;;;6.20;4.90;;;;;;;22.05;36.90;94828.00;6162903;28;108921;-63
2023/04/22 08:22:44;;;;;;;5.17;4.67;;;;;;;22.07;37.28;94831.13;6163349;28;108928;-64
2023/04/22 08:25:47;;;;;;;7.83;5.27;;;;;;;22.09;36.76;94835.06;6152535;28;109022;-64
2023/04/22 08:28:50;;;;;;;5.83;5.30;;;;;;;22.12;36.81;94833.66;6162900;28;108919;-63
2023/04/22 08:31:55;;;;;;;5.53;5.03;;;;;;;22.14;36.45;94828.00;6162459;28;108832;-63
2023/04/22 08:34:58;;;;;;;5.40;4.80;;;;;;;22.14;36.82;94820.00;6162610;28;108904;-63
2023/04/22 08:38:06;;;;;;;6.67;4.73;;;;;;;22.18;36.80;94818.28;6152088;28;109047;-64
2023/04/22 08:41:10;;;;;;;6.17;5.63;;;;;;;22.23;36.52;94816.28;6162639;28;109012;-64
2023/04/22 08:44:14;;;;;;;5.63;5.07;;;;;;;22.23;36.69;94810.16;6161933;28;109014;-63
2023/04/22 08:47:20;;;;;;;5.10;4.70;;;;;;;22.24;36.39;94807.19;6158453;28;108865;-64
2023/04/22 08:50:24;;;;;;;5.57;5.07;;;;;;;22.25;36.19;94802.63;6155672;28;108998;-63
2023/04/22 08:53:27;;;;;;;5.87;5.03;;;;;;;22.19;36.58;94794.00;6162108;28;108909;-65
2023/04/22 08:56:31;;;;;;;5.57;5.07;;;;;;;22.21;36.24;94793.69;6161689;28;108894;-66
2023/04/22 08:59:35;;;;;;;5.00;4.60;;;;;;;22.27;36.25;94798.56;6151045;28;108912;-65
2023/04/22 09:02:44;;;;;;;5.90;5.30;;;;;;;22.31;35.88;94796.03;6159983;28;109086;-62
2023/04/22 09:05:51;;;;;;;6.00;5.50;;;;;;;22.27;36.10;94787.09;6172070;28;109166;-65
2023/04/22 09:08:54;;;;;;;5.43;5.03;;;;;;;22.24;36.03;94791.19;6161161;28;108884;-64
2023/04/22 09:11:57;;;;;;;6.77;6.17;;;;;;;22.27;36.41;94785.22;6149978;28;109006;-63
2023/04/22 09:15:00;;;;;;;6.07;5.47;;;;;;;22.28;36.00;94791.34;6163584;28;109086;-64
2023/04/22 09:18:05;;;;;;;7.47;6.73;;;;;;;22.28;36.37;94783.34;6167963;28;109107;-64
2023/04/22 09:21:08;;;;;;;9.00;6.80;;;;;;;22.30;36.52;94781.16;6161422;28;108946;-65
2023/04/22 09:24:12;;;;;;;7.77;6.87;;;;;;;22.32;35.99;94781.63;6153723;28;111564;-69
2023/04/22 09:27:16;;;;;;;9.63;7.17;;;;;;;22.29;36.92;94777.69;6156686;28;109173;-69
2023/04/22 09:30:23;;;;;;;11.70;7.10;;;;;;;22.22;37.26;94763.28;6169589;28;108913;-70
2023/04/22 09:33:28;;;;;;;11.03;8.33;;;;;;;22.28;38.15;94775.34;6156175;28;110652;-65
2023/04/22 09:36:33;;;;;;;11.30;8.40;;;;;;;22.28;37.30;94764.69;6159738;28;108987;-72
2023/04/22 09:39:36;;;;;;;11.53;8.37;;;;;;;22.31;37.99;94764.06;6160567;28;109130;-72
2023/04/22 09:42:49;;;;;;;10.93;7.80;;;;;;;22.33;37.64;94761.84;6154537;28;108993;-71
2023/04/22 09:45:53;;;;;;;10.10;8.17;;;;;;;22.26;38.31;94772.22;6151380;28;109289;-70
2023/04/22 09:48:58;;;;;;;10.20;8.23;;;;;;;22.19;38.48;94767.38;6163408;28;108867;-71
2023/04/22 09:52:01;;;;;;;9.23;8.33;;;;;;;22.11;38.49;94755.59;6163613;28;109088;-71
2023/04/22 09:55:09;;;;;;;10.00;7.87;;;;;;;22.11;38.30;94755.59;6163598;28;109008;-69
2023/04/22 09:58:14;;;;;;;10.23;9.00;;;;;;;22.18;38.16;94770.31;6150892;28;109063;-68
2023/04/22 10:01:17;;;;;;;10.33;9.33;;;;;;;22.14;37.61;94756.06;6158877;28;108957;-69
2023/04/22 10:04:24;;;;;;;9.00;8.20;;;;;;;22.18;37.83;94756.97;6158821;28;108960;-69
2023/04/22 10:07:30;;;;;;;9.20;8.20;;;;;;;22.16;38.08;94762.63;6153593;28;108846;-67
2023/04/22 10:10:34;;;;;;;8.30;7.60;;;;;;;22.11;37.79;94765.47;6159505;28;109115;-68
2023/04/22 10:13:37;;;;;;;8.57;7.70;;;;;;;22.11;37.61;94770.78;6177405;28;108975;-70
2023/04/22 10:16:43;;;;;;;9.50;8.50;;;;;;;22.08;38.27;94771.41;6169235;28;108913;-70
2023/04/22 10:19:48;;;;;;;9.90;7.60;;;;;;;22.07;37.50;94772.50;6149876;28;109128;-71
2023/04/22 10:22:54;;;;;;;7.93;7.17;;;;;;;22.04;37.83;94762.47;6172159;28;108655;-71
2023/04/22 10:25:57;;;;;;;7.73;6.93;;;;;;;22.04;37.12;94765.94;6160618;28;109865;-70
2023/04/22 10:29:01;;;;;;;9.10;7.20;;;;;;;22.03;36.80;94767.03;6160136;28;108917;-71
2023/04/22 10:32:05;;;;;;;7.20;6.50;;;;;;;22.03;37.00;94759.03;6157746;28;109061;-70
2023/04/22 10:35:15;;;;;;;7.90;7.10;;;;;;;22.00;37.19;94764.97;6180340;28;108908;-69
2023/04/22 10:38:18;;;;;;;6.40;5.80;;;;;;;22.02;37.07;94762.00;6160459;28;108909;-70
2023/04/22 10:41:24;;;;;;;6.90;6.30;;;;;;;22.00;37.11;94758.84;6173914;28;108999;-70
2023/04/22 10:44:30;;;;;;;6.87;5.97;;;;;;;21.98;36.96;94750.38;6144811;28;110244;-70
2023/04/22 10:47:34;;;;;;;6.73;6.20;;;;;;;21.98;36.70;94750.38;6156540;28;108840;-70
2023/04/22 10:50:39;;;;;;;5.47;4.97;;;;;;;21.98;36.91;94748.50;6157304;28;108902;-72
2023/04/22 10:53:42;;;;;;;6.60;6.00;;;;;;;21.96;36.96;94742.72;6149017;28;108780;-70
2023/04/22 10:57:00;;;;;;;6.43;5.93;;;;;;;21.95;36.72;94743.81;6157317;28;109063;-70
2023/04/22 11:00:27;;;;;;;5.93;5.40;;;;;;;21.94;36.96;94742.25;6166526;28;108951;-70
2023/04/22 11:03:40;;;;;;;4.90;4.40;;;;;;;21.92;36.54;94746.31;6155362;28;108957;-67
2023/04/22 11:06:45;;;;;;;6.20;5.57;;;;;;;21.97;36.66;94748.81;6153447;28;109307;-70
2023/04/22 11:09:51;;;;;;;5.67;5.17;;;;;;;21.96;36.87;94742.72;6159108;28;108885;-69
2023/04/22 11:12:55;;;;;;;13.50;5.77;;;;;;;21.86;36.81;94731.59;6159437;28;109358;-70
2023/04/22 11:15:59;;;;;;;3.60;3.30;;;;;;;21.67;33.12;94745.13;6149217;28;108905;-71
2023/04/22 11:19:02;;;;;;;3.13;2.83;;;;;;;21.21;32.54;94738.44;6158585;28;109189;-68
2023/04/22 11:22:07;;;;;;;2.50;2.27;;;;;;;21.26;33.36;94729.50;6165446;28;108884;-71
2023/04/22 11:25:10;;;;;;;3.30;2.53;;;;;;;21.60;31.84;94745.59;6150096;28;109268;-64
2023/04/22 11:28:14;;;;;;;2.40;2.20;;;;;;;21.77;32.61;94750.19;6148202;28;108879;-64
2023/04/22 11:31:17;;;;;;;2.77;2.57;;;;;;;21.87;32.78;94751.81;6161085;28;109135;-69
2023/04/22 11:34:20;;;;;;;2.90;2.30;;;;;;;21.85;33.48;94757.44;6159122;28;109440;-65
2023/04/22 11:37:25;;;;;;;10.83;3.20;;;;;;;21.84;33.96;94755.06;6159847;28;109029;-64
2023/04/22 11:40:30;;;;;;;4.20;2.97;;;;;;;21.94;34.23;94762.78;6151680;28;109152;-64
2023/04/22 11:43:46;;;;;;;4.17;3.00;;;;;;;21.98;34.68;94763.72;6163158;28;108925;-64
2023/04/22 11:46:49;;;;;;;3.43;2.27;;;;;;;22.02;34.73;94765.47;6162669;28;108854;-64
2023/04/22 11:49:57;;;;;;;5.30;2.90;;;;;;;22.01;35.00;94752.44;6151731;28;109049;-63
2023/04/22 11:53:04;;;;;;;4.00;2.33;;;;;;;22.05;34.96;94772.03;6162776;28;108868;-67
2023/04/22 11:56:07;;;;;;;4.40;2.80;;;;;;;22.05;35.33;94766.72;6163198;28;108805;-64
2023/04/22 11:59:10;;;;;;;3.70;2.60;;;;;;;22.03;35.89;94764.38;6161921;28;108928;-64
2023/04/22 12:02:13;;;;;;;2.80;2.50;;;;;;;22.06;35.58;94778.94;6157013;28;109000;-64
2023/04/22 12:05:16;;;;;;;2.90;2.30;;;;;;;22.07;36.13;94777.84;6170462;28;108968;-64
2023/04/22 12:08:22;;;;;;;3.23;2.80;;;;;;;22.04;36.07;94786.47;6177529;28;109076;-68
2023/04/22 12:11:27;;;;;;;4.20;2.40;;;;;;;22.04;36.51;94781.13;6176187;28;108899;-67
2023/04/22 12:14:32;;;;;;;2.20;2.07;;;;;;;21.98;36.46;94763.72;6163282;28;109129;-66
2023/04/22 12:17:35;;;;;;;2.63;2.43;;;;;;;22.03;37.00;94777.69;6166794;28;108933;-66
2023/04/22 12:20:39;;;;;;;3.57;2.90;;;;;;;22.02;37.08;94781.44;6173201;28;108990;-65
2023/04/22 12:23:45;;;;;;;3.33;2.53;;;;;;;22.04;37.09;94778.47;6164935;28;110413;-66
2023/04/22 12:26:48;;;;;;;3.40;2.40;;;;;;;22.04;37.32;94786.47;6168278;28;108932;-66
2023/04/22 12:29:53;;;;;;;7.17;4.47;;;;;;;21.98;37.31;94774.38;6176234;28;108961;-65
2023/04/22 12:32:56;;;;;;;2.50;2.30;;;;;;;22.01;37.58;94776.41;6172731;28;109060;-65
2023/04/22 12:35:59;;;;;;;3.10;2.27;;;;;;;22.02;37.73;94778.78;6143642;28;108898;-66
2023/04/22 12:39:04;;;;;;;2.93;2.30;;;;;;;22.00;37.78;94775.63;6179029;28;108977;-64
2023/04/22 12:42:07;;;;;;;2.50;2.30;;;;;;;21.99;37.95;94779.38;6170026;28;108895;-63
2023/04/22 12:45:11;;;;;;;2.50;2.13;;;;;;;21.97;38.00;94778.13;6168787;28;108907;-67
2023/04/22 12:48:14;;;;;;;3.97;2.33;;;;;;;22.00;38.11;94778.28;6148028;28;110080;-63
2023/04/22 12:51:17;;;;;;;2.23;2.00;;;;;;;21.97;38.59;94775.47;6161576;28;108893;-63
2023/04/22 12:54:22;;;;;;;2.30;2.10;;;;;;;21.99;38.77;94784.72;6170315;28;108986;-63
2023/04/22 12:57:26;;;;;;;2.70;2.33;;;;;;;21.95;38.71;94775.00;6159252;28;108914;-62
2023/04/22 13:00:29;;;;;;;3.30;2.37;;;;;;;21.98;38.85;94777.81;6155499;28;109754;-63
2023/04/22 13:03:32;;;;;;;2.23;2.07;;;;;;;21.98;38.93;94777.03;6170920;28;108994;-63
2023/04/22 13:06:36;;;;;;;2.83;2.27;;;;;;;21.98;39.01;94772.50;6171409;28;108969;-63
2023/04/22 13:09:42;;;;;;;2.83;2.30;;;;;;;21.96;38.87;94774.69;6152471;28;108951;-65
2023/04/22 13:12:45;;;;;;;2.00;1.90;;;;;;;21.99;39.09;94781.25;6161659;28;109107;-63
2023/04/22 13:15:52;;;;;;;3.07;2.60;;;;;;;21.98;39.46;94772.50;6172804;28;108896;-64
2023/04/22 13:18:56;;;;;;;2.50;2.30;;;;;;;21.98;39.74;94777.81;6164382;28;108880;-63
2023/04/22 13:22:00;;;;;;;3.00;2.30;;;;;;;21.96;39.26;94768.56;6158162;28;109000;-64
2023/04/22 13:25:05;;;;;;;2.70;2.50;;;;;;;22.04;39.55;94771.25;6163070;28;109264;-63
2023/04/22 13:28:10;;;;;;;2.50;2.30;;;;;;;21.99;39.18;94765.28;6159983;28;109023;-63
2023/04/22 13:31:13;;;;;;;3.60;2.60;;;;;;;22.04;39.40;94773.94;6158995;28;109145;-63
2023/04/22 13:34:16;;;;;;;3.00;2.80;;;;;;;22.02;39.33;94770.00;6150975;28;110095;-66
2023/04/22 13:37:20;;;;;;;2.77;2.57;;;;;;;22.05;39.19;94767.50;6161671;28;108787;-68
2023/04/22 13:40:25;;;;;;;3.80;3.40;;;;;;;22.06;39.18;94768.28;6162805;28;109079;-66
2023/04/22 13:43:28;;;;;;;5.63;4.63;;;;;;;22.06;38.92;94779.72;6152642;28;108955;-66
2023/04/22 13:46:31;;;;;;;6.77;6.07;;;;;;;22.11;40.38;94781.44;6166658;28;108960;-67
2023/04/22 13:49:34;;;;;;;6.70;6.10;;;;;;;22.17;39.47;94774.06;6168741;28;108919;-62
2023/04/22 13:52:37;;;;;;;7.03;6.43;;;;;;;22.21;38.61;94780.38;6159966;28;108944;-63
2023/04/22 13:55:42;;;;;;;5.93;4.50;;;;;;;22.06;37.51;94768.28;6149516;28;111315;-63
2023/04/22 13:58:45;;;;;;;4.63;4.23;;;;;;;22.13;37.05;94767.81;6159302;28;110096;-63
2023/04/22 14:01:48;;;;;;;5.90;4.93;;;;;;;22.06;36.64;94769.06;6161608;28;108924;-64
2023/04/22 14:04:52;;;;;;;6.30;2.70;;;;;;;21.59;32.90;94757.34;6160644;28;108920;-63
2023/04/22 14:07:56;;;;;;;3.30;3.10;;;;;;;21.78;35.71;94757.06;6147890;28;109261;-64